sensor_id;sensor_type;location;lat;lon;timestamp;P1;durP1;ratioP1;P2;durP2;ratioP2
20802;SDS011;10562;-33.856;151.182;2023-03-01T00:00:46;12.93;;;4.47;;
20802;SDS011;10562;-33.856;151.182;2023-03-01T00:03:19;10.23;;;4.05;;
20802;SDS011;10562;-33.856;151.182;2023-03-01T00:05:50;13.93;;;4.15;;
20802;SDS011;10562;-33.856;151.182;2023-03-01T00:08:21;15.07;;;4.03;;
20802;SDS011;10562;-33.856;151.182;2023-03-01T00:10:59;9.00;;;3.85;;
20802;SDS011;10562;-33.856;151.182;2023-03-01T00:13:31;10.50;;;3.67;;
20802;SDS011;10562;-33.856;151.182;2023-03-01T00:16:03;8.35;;;3.83;;
20802;SDS011;10562;-33.856;151.182;2023-03-01T00:18:36;5.57;;;3.40;;
20802;SDS011;10562;-33.856;151.182;2023-03-01T00:21:07;8.40;;;3.97;;
20802;SDS011;10562;-33.856;151.182;2023-03-01T00:23:37;10.38;;;3.97;;
20802;SDS011;10562;-33.856;151.182;2023-03-01T00:26:09;9.35;;;3.53;;
20802;SDS011;10562;-33.856;151.182;2023-03-01T00:28:41;9.13;;;3.45;;
20802;SDS011;10562;-33.856;151.182;2023-03-01T00:31:12;8.60;;;3.63;;
20802;SDS011;10562;-33.856;151.182;2023-03-01T00:33:46;7.43;;;3.45;;
20802;SDS011;10562;-33.856;151.182;2023-03-01T00:36:17;10.90;;;3.60;;
20802;SDS011;10562;-33.856;151.182;2023-03-01T00:38:48;8.85;;;3.20;;
20802;SDS011;10562;-33.856;151.182;2023-03-01T00:41:19;7.47;;;3.10;;
20802;SDS011;10562;-33.856;151.182;2023-03-01T00:43:52;7.40;;;3.33;;
20802;SDS011;10562;-33.856;151.182;2023-03-01T00:46:25;8.63;;;3.22;;
20802;SDS011;10562;-33.856;151.182;2023-03-01T00:48:58;7.30;;;3.10;;
20802;SDS011;10562;-33.856;151.182;2023-03-01T00:51:30;10.32;;;2.80;;
20802;SDS011;10562;-33.856;151.182;2023-03-01T00:54:01;6.88;;;3.05;;
20802;SDS011;10562;-33.856;151.182;2023-03-01T00:56:32;5.78;;;3.00;;
20802;SDS011;10562;-33.856;151.182;2023-03-01T00:59:03;9.23;;;2.85;;
20802;SDS011;10562;-33.856;151.182;2023-03-01T01:01:34;8.05;;;2.60;;
20802;SDS011;10562;-33.856;151.182;2023-03-01T01:04:07;7.05;;;2.60;;
20802;SDS011;10562;-33.856;151.182;2023-03-01T01:06:39;5.55;;;2.00;;
20802;SDS011;10562;-33.856;151.182;2023-03-01T01:09:11;5.72;;;2.28;;
20802;SDS011;10562;-33.856;151.182;2023-03-01T01:11:45;6.32;;;2.40;;
20802;SDS011;10562;-33.856;151.182;2023-03-01T01:14:17;7.40;;;2.22;;
20802;SDS011;10562;-33.856;151.182;2023-03-01T01:16:48;6.80;;;2.63;;
20802;SDS011;10562;-33.856;151.182;2023-03-01T01:19:21;6.78;;;2.30;;
20802;SDS011;10562;-33.856;151.182;2023-03-01T01:21:52;6.72;;;2.17;;
20802;SDS011;10562;-33.856;151.182;2023-03-01T01:24:23;6.45;;;2.00;;
20802;SDS011;10562;-33.856;151.182;2023-03-01T01:26:54;8.35;;;1.90;;
20802;SDS011;10562;-33.856;151.182;2023-03-01T01:29:25;7.95;;;2.03;;
20802;SDS011;10562;-33.856;151.182;2023-03-01T01:31:56;7.85;;;2.20;;
20802;SDS011;10562;-33.856;151.182;2023-03-01T01:34:28;6.57;;;2.15;;
20802;SDS011;10562;-33.856;151.182;2023-03-01T01:36:59;8.85;;;2.10;;
20802;SDS011;10562;-33.856;151.182;2023-03-01T01:39:33;7.05;;;2.17;;
20802;SDS011;10562;-33.856;151.182;2023-03-01T01:42:04;5.95;;;1.63;;
20802;SDS011;10562;-33.856;151.182;2023-03-01T01:44:39;7.57;;;1.67;;
20802;SDS011;10562;-33.856;151.182;2023-03-01T01:47:12;5.60;;;1.77;;
20802;SDS011;10562;-33.856;151.182;2023-03-01T01:49:48;6.18;;;2.13;;
20802;SDS011;10562;-33.856;151.182;2023-03-01T01:52:20;7.50;;;1.92;;
20802;SDS011;10562;-33.856;151.182;2023-03-01T01:54:55;7.07;;;2.20;;
20802;SDS011;10562;-33.856;151.182;2023-03-01T01:57:32;6.78;;;1.73;;
20802;SDS011;10562;-33.856;151.182;2023-03-01T02:00:04;9.30;;;1.80;;
20802;SDS011;10562;-33.856;151.182;2023-03-01T02:02:37;4.45;;;1.60;;
20802;SDS011;10562;-33.856;151.182;2023-03-01T02:05:11;4.03;;;1.35;;
20802;SDS011;10562;-33.856;151.182;2023-03-01T02:07:48;4.88;;;1.35;;
20802;SDS011;10562;-33.856;151.182;2023-03-01T02:10:20;4.45;;;1.40;;
20802;SDS011;10562;-33.856;151.182;2023-03-01T02:12:52;7.15;;;1.55;;
20802;SDS011;10562;-33.856;151.182;2023-03-01T02:15:24;7.90;;;2.00;;
20802;SDS011;10562;-33.856;151.182;2023-03-01T02:17:55;4.03;;;1.50;;
20802;SDS011;10562;-33.856;151.182;2023-03-01T02:20:30;8.85;;;1.90;;
20802;SDS011;10562;-33.856;151.182;2023-03-01T02:23:06;4.43;;;1.60;;
20802;SDS011;10562;-33.856;151.182;2023-03-01T02:25:40;4.85;;;1.75;;
20802;SDS011;10562;-33.856;151.182;2023-03-01T02:31:08;11.30;;;2.00;;
20802;SDS011;10562;-33.856;151.182;2023-03-01T02:33:56;6.72;;;1.75;;
20802;SDS011;10562;-33.856;151.182;2023-03-01T02:36:31;7.63;;;1.80;;
20802;SDS011;10562;-33.856;151.182;2023-03-01T02:39:05;7.50;;;2.30;;
20802;SDS011;10562;-33.856;151.182;2023-03-01T02:41:41;5.45;;;1.90;;
20802;SDS011;10562;-33.856;151.182;2023-03-01T02:44:17;4.20;;;1.58;;
20802;SDS011;10562;-33.856;151.182;2023-03-01T02:46:48;4.68;;;1.70;;
20802;SDS011;10562;-33.856;151.182;2023-03-01T02:49:21;4.00;;;1.50;;
20802;SDS011;10562;-33.856;151.182;2023-03-01T02:52:01;3.50;;;1.58;;
20802;SDS011;10562;-33.856;151.182;2023-03-01T02:54:54;4.28;;;1.58;;
20802;SDS011;10562;-33.856;151.182;2023-03-01T02:57:29;3.22;;;1.60;;
20802;SDS011;10562;-33.856;151.182;2023-03-01T03:00:04;3.67;;;1.75;;
20802;SDS011;10562;-33.856;151.182;2023-03-01T03:02:45;5.15;;;1.80;;
20802;SDS011;10562;-33.856;151.182;2023-03-01T03:05:17;7.70;;;1.65;;
20802;SDS011;10562;-33.856;151.182;2023-03-01T03:07:49;4.55;;;1.63;;
20802;SDS011;10562;-33.856;151.182;2023-03-01T03:10:21;5.93;;;1.70;;
20802;SDS011;10562;-33.856;151.182;2023-03-01T03:12:55;6.55;;;1.73;;
20802;SDS011;10562;-33.856;151.182;2023-03-01T03:15:29;7.25;;;1.75;;
20802;SDS011;10562;-33.856;151.182;2023-03-01T03:18:02;3.30;;;1.30;;
20802;SDS011;10562;-33.856;151.182;2023-03-01T03:20:33;5.22;;;1.60;;
20802;SDS011;10562;-33.856;151.182;2023-03-01T03:23:05;3.08;;;1.30;;
20802;SDS011;10562;-33.856;151.182;2023-03-01T03:25:36;2.67;;;1.05;;
20802;SDS011;10562;-33.856;151.182;2023-03-01T03:28:06;5.63;;;1.30;;
20802;SDS011;10562;-33.856;151.182;2023-03-01T03:30:40;6.03;;;1.60;;
20802;SDS011;10562;-33.856;151.182;2023-03-01T03:33:12;7.47;;;1.50;;
20802;SDS011;10562;-33.856;151.182;2023-03-01T03:35:44;4.75;;;1.38;;
20802;SDS011;10562;-33.856;151.182;2023-03-01T03:38:16;11.15;;;1.55;;
20802;SDS011;10562;-33.856;151.182;2023-03-01T03:40:48;8.40;;;1.42;;
20802;SDS011;10562;-33.856;151.182;2023-03-01T03:43:20;12.23;;;2.15;;
20802;SDS011;10562;-33.856;151.182;2023-03-01T03:45:54;9.10;;;1.75;;
20802;SDS011;10562;-33.856;151.182;2023-03-01T03:48:25;11.15;;;1.55;;
20802;SDS011;10562;-33.856;151.182;2023-03-01T03:50:56;6.65;;;1.38;;
20802;SDS011;10562;-33.856;151.182;2023-03-01T03:53:27;4.32;;;1.13;;
20802;SDS011;10562;-33.856;151.182;2023-03-01T03:55:58;6.57;;;1.20;;
20802;SDS011;10562;-33.856;151.182;2023-03-01T03:58:29;10.43;;;1.55;;
20802;SDS011;10562;-33.856;151.182;2023-03-01T04:01:02;9.68;;;1.10;;
20802;SDS011;10562;-33.856;151.182;2023-03-01T04:03:33;7.32;;;1.60;;
20802;SDS011;10562;-33.856;151.182;2023-03-01T04:06:04;7.15;;;1.20;;
20802;SDS011;10562;-33.856;151.182;2023-03-01T04:08:35;3.80;;;1.23;;
20802;SDS011;10562;-33.856;151.182;2023-03-01T04:11:06;6.82;;;1.13;;
20802;SDS011;10562;-33.856;151.182;2023-03-01T04:13:56;4.47;;;0.80;;
20802;SDS011;10562;-33.856;151.182;2023-03-01T04:16:29;4.38;;;0.93;;
20802;SDS011;10562;-33.856;151.182;2023-03-01T04:19:00;3.42;;;1.02;;
20802;SDS011;10562;-33.856;151.182;2023-03-01T04:21:32;6.18;;;1.20;;
20802;SDS011;10562;-33.856;151.182;2023-03-01T04:24:04;8.25;;;1.35;;
20802;SDS011;10562;-33.856;151.182;2023-03-01T04:26:35;6.80;;;1.08;;
20802;SDS011;10562;-33.856;151.182;2023-03-01T04:29:06;4.07;;;1.00;;
20802;SDS011;10562;-33.856;151.182;2023-03-01T04:31:39;8.27;;;1.13;;
20802;SDS011;10562;-33.856;151.182;2023-03-01T04:34:10;7.75;;;1.20;;
20802;SDS011;10562;-33.856;151.182;2023-03-01T04:36:40;7.57;;;1.20;;
20802;SDS011;10562;-33.856;151.182;2023-03-01T04:39:11;8.38;;;1.20;;
20802;SDS011;10562;-33.856;151.182;2023-03-01T04:41:42;10.23;;;1.50;;
20802;SDS011;10562;-33.856;151.182;2023-03-01T04:44:13;7.53;;;1.25;;
20802;SDS011;10562;-33.856;151.182;2023-03-01T04:46:45;9.10;;;1.30;;
20802;SDS011;10562;-33.856;151.182;2023-03-01T04:49:18;5.00;;;1.20;;
20802;SDS011;10562;-33.856;151.182;2023-03-01T04:51:49;5.90;;;1.20;;
20802;SDS011;10562;-33.856;151.182;2023-03-01T04:54:20;4.63;;;1.20;;
20802;SDS011;10562;-33.856;151.182;2023-03-01T04:56:52;6.90;;;1.27;;
20802;SDS011;10562;-33.856;151.182;2023-03-01T04:59:23;5.57;;;1.30;;
20802;SDS011;10562;-33.856;151.182;2023-03-01T05:01:56;5.43;;;1.23;;
20802;SDS011;10562;-33.856;151.182;2023-03-01T05:04:28;7.40;;;1.60;;
20802;SDS011;10562;-33.856;151.182;2023-03-01T05:06:59;4.72;;;1.20;;
20802;SDS011;10562;-33.856;151.182;2023-03-01T05:09:30;4.25;;;1.27;;
20802;SDS011;10562;-33.856;151.182;2023-03-01T05:12:01;5.55;;;1.35;;
20802;SDS011;10562;-33.856;151.182;2023-03-01T05:14:32;5.70;;;1.38;;
20802;SDS011;10562;-33.856;151.182;2023-03-01T05:17:04;5.55;;;1.20;;
20802;SDS011;10562;-33.856;151.182;2023-03-01T05:19:36;6.70;;;1.50;;
20802;SDS011;10562;-33.856;151.182;2023-03-01T05:22:08;9.20;;;1.67;;
20802;SDS011;10562;-33.856;151.182;2023-03-01T05:24:39;5.65;;;1.40;;
20802;SDS011;10562;-33.856;151.182;2023-03-01T05:27:10;15.77;;;1.65;;
20802;SDS011;10562;-33.856;151.182;2023-03-01T05:29:41;9.52;;;1.75;;
20802;SDS011;10562;-33.856;151.182;2023-03-01T05:32:14;12.63;;;1.65;;
20802;SDS011;10562;-33.856;151.182;2023-03-01T05:34:44;9.35;;;1.60;;
20802;SDS011;10562;-33.856;151.182;2023-03-01T05:37:15;5.15;;;1.42;;
20802;SDS011;10562;-33.856;151.182;2023-03-01T05:39:46;7.95;;;1.65;;
20802;SDS011;10562;-33.856;151.182;2023-03-01T05:42:17;7.32;;;1.58;;
20802;SDS011;10562;-33.856;151.182;2023-03-01T05:44:48;8.07;;;1.60;;
20802;SDS011;10562;-33.856;151.182;2023-03-01T05:47:21;11.27;;;2.00;;
20802;SDS011;10562;-33.856;151.182;2023-03-01T05:49:51;10.27;;;1.70;;
20802;SDS011;10562;-33.856;151.182;2023-03-01T05:52:22;5.70;;;1.33;;
20802;SDS011;10562;-33.856;151.182;2023-03-01T05:54:53;7.03;;;1.35;;
20802;SDS011;10562;-33.856;151.182;2023-03-01T05:57:24;7.90;;;1.70;;
20802;SDS011;10562;-33.856;151.182;2023-03-01T05:59:56;9.38;;;1.80;;
20802;SDS011;10562;-33.856;151.182;2023-03-01T06:02:29;10.35;;;2.20;;
20802;SDS011;10562;-33.856;151.182;2023-03-01T06:05:00;13.85;;;2.05;;
20802;SDS011;10562;-33.856;151.182;2023-03-01T06:07:30;13.93;;;2.13;;
20802;SDS011;10562;-33.856;151.182;2023-03-01T06:10:01;14.95;;;2.17;;
20802;SDS011;10562;-33.856;151.182;2023-03-01T06:15:04;8.75;;;2.00;;
20802;SDS011;10562;-33.856;151.182;2023-03-01T06:17:38;12.35;;;1.95;;
20802;SDS011;10562;-33.856;151.182;2023-03-01T06:20:13;10.13;;;1.70;;
20802;SDS011;10562;-33.856;151.182;2023-03-01T06:22:45;12.80;;;1.90;;
20802;SDS011;10562;-33.856;151.182;2023-03-01T06:25:18;11.40;;;2.03;;
20802;SDS011;10562;-33.856;151.182;2023-03-01T06:27:50;16.45;;;2.38;;
20802;SDS011;10562;-33.856;151.182;2023-03-01T06:30:21;12.60;;;2.20;;
20802;SDS011;10562;-33.856;151.182;2023-03-01T06:32:54;12.50;;;2.25;;
20802;SDS011;10562;-33.856;151.182;2023-03-01T06:35:28;13.80;;;2.33;;
20802;SDS011;10562;-33.856;151.182;2023-03-01T06:37:59;16.25;;;2.40;;
20802;SDS011;10562;-33.856;151.182;2023-03-01T06:40:30;16.95;;;2.60;;
20802;SDS011;10562;-33.856;151.182;2023-03-01T06:43:02;13.10;;;2.75;;
20802;SDS011;10562;-33.856;151.182;2023-03-01T06:45:33;12.68;;;2.20;;
20802;SDS011;10562;-33.856;151.182;2023-03-01T06:48:07;13.77;;;2.20;;
20802;SDS011;10562;-33.856;151.182;2023-03-01T06:50:39;13.48;;;2.90;;
20802;SDS011;10562;-33.856;151.182;2023-03-01T06:53:09;12.88;;;2.50;;
20802;SDS011;10562;-33.856;151.182;2023-03-01T06:55:40;13.00;;;2.53;;
20802;SDS011;10562;-33.856;151.182;2023-03-01T06:58:11;14.73;;;2.45;;
20802;SDS011;10562;-33.856;151.182;2023-03-01T07:00:42;10.77;;;2.05;;
20802;SDS011;10562;-33.856;151.182;2023-03-01T07:03:14;22.70;;;4.45;;
20802;SDS011;10562;-33.856;151.182;2023-03-01T07:05:45;13.35;;;2.60;;
20802;SDS011;10562;-33.856;151.182;2023-03-01T07:08:18;16.70;;;2.65;;
20802;SDS011;10562;-33.856;151.182;2023-03-01T07:10:49;15.40;;;2.60;;
20802;SDS011;10562;-33.856;151.182;2023-03-01T07:13:25;13.95;;;2.83;;
20802;SDS011;10562;-33.856;151.182;2023-03-01T07:15:56;13.20;;;2.38;;
20802;SDS011;10562;-33.856;151.182;2023-03-01T07:18:28;18.27;;;3.00;;
20802;SDS011;10562;-33.856;151.182;2023-03-01T07:21:03;14.65;;;2.90;;
20802;SDS011;10562;-33.856;151.182;2023-03-01T07:23:35;16.20;;;2.95;;
20802;SDS011;10562;-33.856;151.182;2023-03-01T07:26:06;15.20;;;2.80;;
20802;SDS011;10562;-33.856;151.182;2023-03-01T07:28:37;17.63;;;2.88;;
20802;SDS011;10562;-33.856;151.182;2023-03-01T07:31:07;15.07;;;2.90;;
20802;SDS011;10562;-33.856;151.182;2023-03-01T07:33:41;17.63;;;2.92;;
20802;SDS011;10562;-33.856;151.182;2023-03-01T07:36:12;13.43;;;2.78;;
20802;SDS011;10562;-33.856;151.182;2023-03-01T07:38:42;12.90;;;2.50;;
20802;SDS011;10562;-33.856;151.182;2023-03-01T07:41:13;17.10;;;3.17;;
20802;SDS011;10562;-33.856;151.182;2023-03-01T07:43:44;17.13;;;2.90;;
20802;SDS011;10562;-33.856;151.182;2023-03-01T07:46:15;17.95;;;2.80;;
20802;SDS011;10562;-33.856;151.182;2023-03-01T07:48:47;16.63;;;2.80;;
20802;SDS011;10562;-33.856;151.182;2023-03-01T07:51:18;13.32;;;2.45;;
20802;SDS011;10562;-33.856;151.182;2023-03-01T07:53:49;13.07;;;2.88;;
20802;SDS011;10562;-33.856;151.182;2023-03-01T07:56:20;16.20;;;2.70;;
20802;SDS011;10562;-33.856;151.182;2023-03-01T07:58:51;13.75;;;3.10;;
20802;SDS011;10562;-33.856;151.182;2023-03-01T08:01:21;17.88;;;2.92;;
20802;SDS011;10562;-33.856;151.182;2023-03-01T08:03:54;18.05;;;3.17;;
20802;SDS011;10562;-33.856;151.182;2023-03-01T08:06:25;12.48;;;3.10;;
20802;SDS011;10562;-33.856;151.182;2023-03-01T08:08:56;13.70;;;2.63;;
20802;SDS011;10562;-33.856;151.182;2023-03-01T08:11:27;12.23;;;2.40;;
20802;SDS011;10562;-33.856;151.182;2023-03-01T08:13:57;18.98;;;3.05;;
20802;SDS011;10562;-33.856;151.182;2023-03-01T08:16:28;17.98;;;3.25;;
20802;SDS011;10562;-33.856;151.182;2023-03-01T08:19:05;15.70;;;2.58;;
20802;SDS011;10562;-33.856;151.182;2023-03-01T08:21:36;15.32;;;2.97;;
20802;SDS011;10562;-33.856;151.182;2023-03-01T08:24:08;22.15;;;3.17;;
20802;SDS011;10562;-33.856;151.182;2023-03-01T08:26:38;14.57;;;2.92;;
20802;SDS011;10562;-33.856;151.182;2023-03-01T08:29:09;11.48;;;2.58;;
20802;SDS011;10562;-33.856;151.182;2023-03-01T08:31:40;16.92;;;4.25;;
20802;SDS011;10562;-33.856;151.182;2023-03-01T08:34:14;19.17;;;4.43;;
20802;SDS011;10562;-33.856;151.182;2023-03-01T08:36:46;13.90;;;3.35;;
20802;SDS011;10562;-33.856;151.182;2023-03-01T08:39:18;17.45;;;3.20;;
20802;SDS011;10562;-33.856;151.182;2023-03-01T08:41:49;13.23;;;3.25;;
20802;SDS011;10562;-33.856;151.182;2023-03-01T08:44:20;16.48;;;3.75;;
20802;SDS011;10562;-33.856;151.182;2023-03-01T08:46:51;20.63;;;3.58;;
20802;SDS011;10562;-33.856;151.182;2023-03-01T08:49:23;15.57;;;3.00;;
20802;SDS011;10562;-33.856;151.182;2023-03-01T08:51:54;14.32;;;3.00;;
20802;SDS011;10562;-33.856;151.182;2023-03-01T08:54:25;21.55;;;3.60;;
20802;SDS011;10562;-33.856;151.182;2023-03-01T08:56:56;20.52;;;2.83;;
20802;SDS011;10562;-33.856;151.182;2023-03-01T08:59:30;12.43;;;2.60;;
20802;SDS011;10562;-33.856;151.182;2023-03-01T09:02:03;14.85;;;2.92;;
20802;SDS011;10562;-33.856;151.182;2023-03-01T09:04:36;14.23;;;2.75;;
20802;SDS011;10562;-33.856;151.182;2023-03-01T09:07:07;11.45;;;2.65;;
20802;SDS011;10562;-33.856;151.182;2023-03-01T09:09:38;14.32;;;2.80;;
20802;SDS011;10562;-33.856;151.182;2023-03-01T09:12:09;15.63;;;3.05;;
20802;SDS011;10562;-33.856;151.182;2023-03-01T09:14:40;14.38;;;3.22;;
20802;SDS011;10562;-33.856;151.182;2023-03-01T09:17:11;20.20;;;3.00;;
20802;SDS011;10562;-33.856;151.182;2023-03-01T09:19:43;19.40;;;3.50;;
20802;SDS011;10562;-33.856;151.182;2023-03-01T09:22:15;14.75;;;3.85;;
20802;SDS011;10562;-33.856;151.182;2023-03-01T09:24:46;16.63;;;3.25;;
20802;SDS011;10562;-33.856;151.182;2023-03-01T09:27:17;20.00;;;4.07;;
20802;SDS011;10562;-33.856;151.182;2023-03-01T09:29:48;14.45;;;3.72;;
20802;SDS011;10562;-33.856;151.182;2023-03-01T09:32:19;15.35;;;3.40;;
20802;SDS011;10562;-33.856;151.182;2023-03-01T09:34:51;13.18;;;3.42;;
20802;SDS011;10562;-33.856;151.182;2023-03-01T09:37:34;17.23;;;3.75;;
20802;SDS011;10562;-33.856;151.182;2023-03-01T09:40:06;14.55;;;3.10;;
20802;SDS011;10562;-33.856;151.182;2023-03-01T09:42:46;18.83;;;3.67;;
20802;SDS011;10562;-33.856;151.182;2023-03-01T09:45:25;17.15;;;3.35;;
20802;SDS011;10562;-33.856;151.182;2023-03-01T09:47:58;13.20;;;3.08;;
20802;SDS011;10562;-33.856;151.182;2023-03-01T09:50:34;15.88;;;3.22;;
20802;SDS011;10562;-33.856;151.182;2023-03-01T09:53:10;14.95;;;3.15;;
20802;SDS011;10562;-33.856;151.182;2023-03-01T09:55:43;16.60;;;3.30;;
20802;SDS011;10562;-33.856;151.182;2023-03-01T09:58:32;14.30;;;3.50;;
20802;SDS011;10562;-33.856;151.182;2023-03-01T10:01:15;18.80;;;3.53;;
20802;SDS011;10562;-33.856;151.182;2023-03-01T10:04:06;17.58;;;3.20;;
20802;SDS011;10562;-33.856;151.182;2023-03-01T10:06:51;15.27;;;3.35;;
20802;SDS011;10562;-33.856;151.182;2023-03-01T10:09:33;14.13;;;3.55;;
20802;SDS011;10562;-33.856;151.182;2023-03-01T10:12:07;18.90;;;3.92;;
20802;SDS011;10562;-33.856;151.182;2023-03-01T10:14:42;14.07;;;3.38;;
20802;SDS011;10562;-33.856;151.182;2023-03-01T10:17:23;17.95;;;3.60;;
20802;SDS011;10562;-33.856;151.182;2023-03-01T10:19:59;13.60;;;2.78;;
20802;SDS011;10562;-33.856;151.182;2023-03-01T10:22:49;12.75;;;2.90;;
20802;SDS011;10562;-33.856;151.182;2023-03-01T10:25:25;14.95;;;3.30;;
20802;SDS011;10562;-33.856;151.182;2023-03-01T10:28:15;12.85;;;3.00;;
20802;SDS011;10562;-33.856;151.182;2023-03-01T10:30:49;8.82;;;2.50;;
20802;SDS011;10562;-33.856;151.182;2023-03-01T10:33:21;14.10;;;2.83;;
20802;SDS011;10562;-33.856;151.182;2023-03-01T10:35:53;14.63;;;2.63;;
20802;SDS011;10562;-33.856;151.182;2023-03-01T10:38:26;10.98;;;2.50;;
20802;SDS011;10562;-33.856;151.182;2023-03-01T10:41:15;13.45;;;2.40;;
20802;SDS011;10562;-33.856;151.182;2023-03-01T10:43:46;10.35;;;2.38;;
20802;SDS011;10562;-33.856;151.182;2023-03-01T10:46:26;13.60;;;2.55;;
20802;SDS011;10562;-33.856;151.182;2023-03-01T10:49:11;14.90;;;3.00;;
20802;SDS011;10562;-33.856;151.182;2023-03-01T10:51:44;15.77;;;3.33;;
20802;SDS011;10562;-33.856;151.182;2023-03-01T10:54:19;13.45;;;3.53;;
20802;SDS011;10562;-33.856;151.182;2023-03-01T10:56:51;16.27;;;3.03;;
20802;SDS011;10562;-33.856;151.182;2023-03-01T10:59:25;16.00;;;3.78;;
20802;SDS011;10562;-33.856;151.182;2023-03-01T11:02:08;13.05;;;3.40;;
20802;SDS011;10562;-33.856;151.182;2023-03-01T11:04:56;11.77;;;2.95;;
20802;SDS011;10562;-33.856;151.182;2023-03-01T11:07:29;11.75;;;3.03;;
20802;SDS011;10562;-33.856;151.182;2023-03-01T11:10:19;14.43;;;3.70;;
20802;SDS011;10562;-33.856;151.182;2023-03-01T11:12:51;12.90;;;3.13;;
20802;SDS011;10562;-33.856;151.182;2023-03-01T11:15:24;14.07;;;3.70;;
20802;SDS011;10562;-33.856;151.182;2023-03-01T11:17:57;13.55;;;3.60;;
20802;SDS011;10562;-33.856;151.182;2023-03-01T11:20:29;14.57;;;3.47;;
20802;SDS011;10562;-33.856;151.182;2023-03-01T11:23:05;12.52;;;3.30;;
20802;SDS011;10562;-33.856;151.182;2023-03-01T11:25:43;11.35;;;3.50;;
20802;SDS011;10562;-33.856;151.182;2023-03-01T11:28:20;14.40;;;3.30;;
20802;SDS011;10562;-33.856;151.182;2023-03-01T11:30:53;16.77;;;3.67;;
20802;SDS011;10562;-33.856;151.182;2023-03-01T11:33:30;12.35;;;3.58;;
20802;SDS011;10562;-33.856;151.182;2023-03-01T11:36:07;18.05;;;4.45;;
20802;SDS011;10562;-33.856;151.182;2023-03-01T11:38:45;17.63;;;4.45;;
20802;SDS011;10562;-33.856;151.182;2023-03-01T11:41:18;12.80;;;3.92;;
20802;SDS011;10562;-33.856;151.182;2023-03-01T11:43:52;14.52;;;4.28;;
20802;SDS011;10562;-33.856;151.182;2023-03-01T11:46:40;14.38;;;4.72;;
20802;SDS011;10562;-33.856;151.182;2023-03-01T11:49:28;14.13;;;4.15;;
20802;SDS011;10562;-33.856;151.182;2023-03-01T11:52:19;22.83;;;4.35;;
20802;SDS011;10562;-33.856;151.182;2023-03-01T11:55:03;17.05;;;4.20;;
20802;SDS011;10562;-33.856;151.182;2023-03-01T11:57:54;17.50;;;4.32;;
20802;SDS011;10562;-33.856;151.182;2023-03-01T12:00:44;15.00;;;4.20;;
20802;SDS011;10562;-33.856;151.182;2023-03-01T12:03:39;13.32;;;4.18;;
20802;SDS011;10562;-33.856;151.182;2023-03-01T12:06:28;13.38;;;3.90;;
20802;SDS011;10562;-33.856;151.182;2023-03-01T12:09:11;11.63;;;3.90;;
20802;SDS011;10562;-33.856;151.182;2023-03-01T12:11:59;10.27;;;3.80;;
20802;SDS011;10562;-33.856;151.182;2023-03-01T12:14:50;15.05;;;4.00;;
20802;SDS011;10562;-33.856;151.182;2023-03-01T12:20:27;11.40;;;3.83;;
20802;SDS011;10562;-33.856;151.182;2023-03-01T12:23:20;11.23;;;3.83;;
20802;SDS011;10562;-33.856;151.182;2023-03-01T12:26:03;13.55;;;3.90;;
20802;SDS011;10562;-33.856;151.182;2023-03-01T12:28:51;9.77;;;3.55;;
20802;SDS011;10562;-33.856;151.182;2023-03-01T12:35:03;12.60;;;3.55;;
20802;SDS011;10562;-33.856;151.182;2023-03-01T12:37:50;9.90;;;3.65;;
20802;SDS011;10562;-33.856;151.182;2023-03-01T12:40:32;13.00;;;3.72;;
20802;SDS011;10562;-33.856;151.182;2023-03-01T12:43:15;10.23;;;3.38;;
20802;SDS011;10562;-33.856;151.182;2023-03-01T12:45:57;13.02;;;3.55;;
20802;SDS011;10562;-33.856;151.182;2023-03-01T12:48:42;13.65;;;3.95;;
20802;SDS011;10562;-33.856;151.182;2023-03-01T12:51:24;11.95;;;3.50;;
20802;SDS011;10562;-33.856;151.182;2023-03-01T12:53:57;8.63;;;3.60;;
20802;SDS011;10562;-33.856;151.182;2023-03-01T12:56:31;7.30;;;3.40;;
20802;SDS011;10562;-33.856;151.182;2023-03-01T12:59:10;13.60;;;3.67;;
20802;SDS011;10562;-33.856;151.182;2023-03-01T13:01:48;15.98;;;3.95;;
20802;SDS011;10562;-33.856;151.182;2023-03-01T13:04:35;9.75;;;3.17;;
20802;SDS011;10562;-33.856;151.182;2023-03-01T13:07:25;9.82;;;3.65;;
20802;SDS011;10562;-33.856;151.182;2023-03-01T13:10:14;13.70;;;4.30;;
20802;SDS011;10562;-33.856;151.182;2023-03-01T13:12:53;11.63;;;4.18;;
20802;SDS011;10562;-33.856;151.182;2023-03-01T13:15:33;11.70;;;4.10;;
20802;SDS011;10562;-33.856;151.182;2023-03-01T13:18:26;12.98;;;4.32;;
20802;SDS011;10562;-33.856;151.182;2023-03-01T13:20:59;12.38;;;3.97;;
20802;SDS011;10562;-33.856;151.182;2023-03-01T13:23:34;12.73;;;3.67;;
20802;SDS011;10562;-33.856;151.182;2023-03-01T13:26:11;13.23;;;4.00;;
20802;SDS011;10562;-33.856;151.182;2023-03-01T13:34:42;15.88;;;4.78;;
20802;SDS011;10562;-33.856;151.182;2023-03-01T13:37:27;13.70;;;4.40;;
20802;SDS011;10562;-33.856;151.182;2023-03-01T13:43:31;18.52;;;4.55;;
20802;SDS011;10562;-33.856;151.182;2023-03-01T13:46:08;12.40;;;4.00;;
20802;SDS011;10562;-33.856;151.182;2023-03-01T13:48:41;12.77;;;4.13;;
20802;SDS011;10562;-33.856;151.182;2023-03-01T13:51:20;13.85;;;4.00;;
20802;SDS011;10562;-33.856;151.182;2023-03-01T13:53:52;10.27;;;3.65;;
20802;SDS011;10562;-33.856;151.182;2023-03-01T13:56:27;11.30;;;3.97;;
20802;SDS011;10562;-33.856;151.182;2023-03-01T13:59:05;11.75;;;3.50;;
20802;SDS011;10562;-33.856;151.182;2023-03-01T14:01:42;11.38;;;3.70;;
20802;SDS011;10562;-33.856;151.182;2023-03-01T14:04:20;13.65;;;3.42;;
20802;SDS011;10562;-33.856;151.182;2023-03-01T14:06:53;11.15;;;3.90;;
20802;SDS011;10562;-33.856;151.182;2023-03-01T14:09:41;15.95;;;3.88;;
20802;SDS011;10562;-33.856;151.182;2023-03-01T14:12:18;11.68;;;3.72;;
20802;SDS011;10562;-33.856;151.182;2023-03-01T14:15:03;13.00;;;3.80;;
20802;SDS011;10562;-33.856;151.182;2023-03-01T14:17:47;8.68;;;3.20;;
20802;SDS011;10562;-33.856;151.182;2023-03-01T14:20:27;10.48;;;3.80;;
20802;SDS011;10562;-33.856;151.182;2023-03-01T14:22:59;13.57;;;3.80;;
20802;SDS011;10562;-33.856;151.182;2023-03-01T14:25:37;7.60;;;3.60;;
20802;SDS011;10562;-33.856;151.182;2023-03-01T14:28:17;9.48;;;3.42;;
20802;SDS011;10562;-33.856;151.182;2023-03-01T14:30:50;7.57;;;3.70;;
20802;SDS011;10562;-33.856;151.182;2023-03-01T14:33:23;12.23;;;3.92;;
20802;SDS011;10562;-33.856;151.182;2023-03-01T14:35:56;11.85;;;4.20;;
20802;SDS011;10562;-33.856;151.182;2023-03-01T14:38:32;13.30;;;4.15;;
20802;SDS011;10562;-33.856;151.182;2023-03-01T14:41:04;9.38;;;3.53;;
20802;SDS011;10562;-33.856;151.182;2023-03-01T14:43:39;12.27;;;4.10;;
20802;SDS011;10562;-33.856;151.182;2023-03-01T14:46:17;9.35;;;4.10;;
20802;SDS011;10562;-33.856;151.182;2023-03-01T14:48:50;13.63;;;4.63;;
20802;SDS011;10562;-33.856;151.182;2023-03-01T14:51:22;9.68;;;4.22;;
20802;SDS011;10562;-33.856;151.182;2023-03-01T14:53:53;16.95;;;4.45;;
20802;SDS011;10562;-33.856;151.182;2023-03-01T14:56:24;9.80;;;4.00;;
20802;SDS011;10562;-33.856;151.182;2023-03-01T14:58:59;10.02;;;4.07;;
20802;SDS011;10562;-33.856;151.182;2023-03-01T15:01:32;10.25;;;4.22;;
20802;SDS011;10562;-33.856;151.182;2023-03-01T15:04:02;14.98;;;4.35;;